Albion, Nebraska
Current Conditions -  °F | °C
As of 8:35 AM on Saturday 25 Oct 2014 (Local Time) from KBVN Reporting Station
Clear Clear  
Wind Chill: 41°   Ceiling: Unl
Heat Index: 41°   Visibility: 10mi
Dew Point: 37°   Wind: 3mph
Humidity: 86%   Direction: 320°NW
Pressure: 30.12"   Gusts: NA
Location:  41.69°N, 98°W
Report Text: KBVN 251335Z AUTO 32003KT 10SM CLR 05/03 A3012 RMK AO2 T00520030
Loading
Personal Weather Stations






























Interactive Weather Map
Tropical Storm Tracking
New forecast layout! Learn more

10-Day Weather Forecast

Advertisements
Track Severe Weather on mobile